sensor_id;sensor_type;location;lat;lon;timestamp;P1;durP1;ratioP1;P2;durP2;ratioP2
1753;SDS011;58380;48.312;9.246;2023-07-24T06:09:03;9.93;;;5.45;;
1753;SDS011;58380;48.312;9.246;2023-07-24T06:11:28;9.95;;;5.28;;
1753;SDS011;58380;48.312;9.246;2023-07-24T06:13:54;14.43;;;6.37;;
1753;SDS011;58380;48.312;9.246;2023-07-24T06:16:19;13.73;;;6.07;;
1753;SDS011;58380;48.312;9.246;2023-07-24T06:18:44;13.40;;;6.20;;
1753;SDS011;58380;48.312;9.246;2023-07-24T06:21:10;12.37;;;5.40;;
1753;SDS011;58380;48.312;9.246;2023-07-24T06:23:35;14.75;;;5.53;;
1753;SDS011;58380;48.312;9.246;2023-07-24T06:26:01;11.40;;;5.90;;
1753;SDS011;58380;48.312;9.246;2023-07-24T06:28:26;14.10;;;5.88;;
1753;SDS011;58380;48.312;9.246;2023-07-24T06:30:53;11.70;;;5.78;;
1753;SDS011;58380;48.312;9.246;2023-07-24T06:33:19;12.38;;;6.03;;
1753;SDS011;58380;48.312;9.246;2023-07-24T06:35:46;10.60;;;5.18;;
1753;SDS011;58380;48.312;9.246;2023-07-24T06:38:16;9.65;;;5.45;;
1753;SDS011;58380;48.312;9.246;2023-07-24T06:40:42;13.13;;;5.35;;
1753;SDS011;58380;48.312;9.246;2023-07-24T06:43:07;14.98;;;6.22;;
1753;SDS011;58380;48.312;9.246;2023-07-24T06:45:33;11.75;;;5.75;;
1753;SDS011;58380;48.312;9.246;2023-07-24T06:47:58;9.82;;;5.00;;
1753;SDS011;58380;48.312;9.246;2023-07-24T06:50:23;12.38;;;5.45;;
1753;SDS011;58380;48.312;9.246;2023-07-24T06:52:49;10.07;;;5.85;;
1753;SDS011;58380;48.312;9.246;2023-07-24T06:55:16;13.38;;;5.88;;
1753;SDS011;58380;48.312;9.246;2023-07-24T06:57:41;13.35;;;5.40;;
1753;SDS011;58380;48.312;9.246;2023-07-24T07:00:07;9.75;;;5.53;;
1753;SDS011;58380;48.312;9.246;2023-07-24T07:02:36;9.15;;;5.07;;
1753;SDS011;58380;48.312;9.246;2023-07-24T07:05:03;12.73;;;5.70;;
1753;SDS011;58380;48.312;9.246;2023-07-24T07:07:29;10.32;;;5.25;;
1753;SDS011;58380;48.312;9.246;2023-07-24T07:09:54;16.70;;;6.22;;
1753;SDS011;58380;48.312;9.246;2023-07-24T07:12:20;13.35;;;6.57;;
1753;SDS011;58380;48.312;9.246;2023-07-24T07:14:45;9.23;;;5.18;;
1753;SDS011;58380;48.312;9.246;2023-07-24T07:17:11;10.27;;;5.18;;
1753;SDS011;58380;48.312;9.246;2023-07-24T07:19:36;8.73;;;4.97;;
1753;SDS011;58380;48.312;9.246;2023-07-24T07:22:02;8.52;;;4.95;;
1753;SDS011;58380;48.312;9.246;2023-07-24T07:24:27;8.35;;;4.45;;
1753;SDS011;58380;48.312;9.246;2023-07-24T07:26:53;9.10;;;4.85;;
1753;SDS011;58380;48.312;9.246;2023-07-24T07:29:18;9.75;;;4.80;;
1753;SDS011;58380;48.312;9.246;2023-07-24T07:31:44;11.10;;;4.60;;
1753;SDS011;58380;48.312;9.246;2023-07-24T07:34:09;9.32;;;4.85;;
1753;SDS011;58380;48.312;9.246;2023-07-24T07:36:35;10.38;;;4.70;;
1753;SDS011;58380;48.312;9.246;2023-07-24T07:39:00;9.98;;;5.32;;
1753;SDS011;58380;48.312;9.246;2023-07-24T07:43:51;7.45;;;4.18;;
1753;SDS011;58380;48.312;9.246;2023-07-24T07:48:42;8.27;;;4.45;;
1753;SDS011;58380;48.312;9.246;2023-07-24T07:51:07;8.48;;;4.20;;
1753;SDS011;58380;48.312;9.246;2023-07-24T07:53:33;5.90;;;3.35;;
1753;SDS011;58380;48.312;9.246;2023-07-24T07:58:27;7.80;;;4.20;;
1753;SDS011;58380;48.312;9.246;2023-07-24T08:00:53;10.23;;;4.30;;
1753;SDS011;58380;48.312;9.246;2023-07-24T08:03:18;7.65;;;4.15;;
1753;SDS011;58380;48.312;9.246;2023-07-24T08:08:09;8.48;;;4.35;;
1753;SDS011;58380;48.312;9.246;2023-07-24T08:10:36;10.20;;;4.10;;
1753;SDS011;58380;48.312;9.246;2023-07-24T08:13:03;7.50;;;3.60;;
1753;SDS011;58380;48.312;9.246;2023-07-24T08:15:28;9.70;;;4.00;;
1753;SDS011;58380;48.312;9.246;2023-07-24T08:20:19;6.75;;;3.55;;
1753;SDS011;58380;48.312;9.246;2023-07-24T08:22:44;9.18;;;3.97;;
1753;SDS011;58380;48.312;9.246;2023-07-24T08:27:35;8.50;;;4.22;;
1753;SDS011;58380;48.312;9.246;2023-07-24T08:32:26;8.25;;;3.75;;
1753;SDS011;58380;48.312;9.246;2023-07-24T08:34:51;11.60;;;3.75;;
1753;SDS011;58380;48.312;9.246;2023-07-24T08:39:42;6.80;;;3.88;;
1753;SDS011;58380;48.312;9.246;2023-07-24T08:44:37;8.55;;;4.03;;
1753;SDS011;58380;48.312;9.246;2023-07-24T08:49:31;10.13;;;4.05;;
1753;SDS011;58380;48.312;9.246;2023-07-24T08:51:59;7.82;;;4.20;;
1753;SDS011;58380;48.312;9.246;2023-07-24T08:54:27;9.38;;;4.45;;
1753;SDS011;58380;48.312;9.246;2023-07-24T08:56:53;10.23;;;4.78;;
1753;SDS011;58380;48.312;9.246;2023-07-24T08:59:20;10.35;;;4.68;;
1753;SDS011;58380;48.312;9.246;2023-07-24T09:01:46;9.63;;;4.45;;
1753;SDS011;58380;48.312;9.246;2023-07-24T09:06:37;9.02;;;4.40;;
1753;SDS011;58380;48.312;9.246;2023-07-24T09:11:45;10.23;;;4.88;;
1753;SDS011;58380;48.312;9.246;2023-07-24T09:14:19;12.10;;;4.53;;
1753;SDS011;58380;48.312;9.246;2023-07-24T09:17:06;9.93;;;4.82;;
1753;SDS011;58380;48.312;9.246;2023-07-24T09:19:34;8.05;;;4.97;;
1753;SDS011;58380;48.312;9.246;2023-07-24T09:24:37;8.85;;;4.90;;
1753;SDS011;58380;48.312;9.246;2023-07-24T09:27:04;9.30;;;5.07;;
1753;SDS011;58380;48.312;9.246;2023-07-24T09:29:33;8.75;;;4.47;;
1753;SDS011;58380;48.312;9.246;2023-07-24T09:31:59;7.72;;;4.07;;
1753;SDS011;58380;48.312;9.246;2023-07-24T09:34:25;6.78;;;3.60;;
1753;SDS011;58380;48.312;9.246;2023-07-24T09:36:51;8.50;;;3.78;;
1753;SDS011;58380;48.312;9.246;2023-07-24T09:41:52;6.28;;;3.60;;
1753;SDS011;58380;48.312;9.246;2023-07-24T09:44:18;11.65;;;4.28;;
1753;SDS011;58380;48.312;9.246;2023-07-24T09:46:43;8.25;;;4.25;;
1753;SDS011;58380;48.312;9.246;2023-07-24T09:49:10;8.18;;;4.15;;
1753;SDS011;58380;48.312;9.246;2023-07-24T09:51:37;6.50;;;3.55;;
1753;SDS011;58380;48.312;9.246;2023-07-24T09:54:06;8.75;;;4.32;;
1753;SDS011;58380;48.312;9.246;2023-07-24T09:56:42;8.07;;;4.05;;
1753;SDS011;58380;48.312;9.246;2023-07-24T10:04:02;8.80;;;4.20;;
1753;SDS011;58380;48.312;9.246;2023-07-24T10:06:29;8.77;;;3.80;;
1753;SDS011;58380;48.312;9.246;2023-07-24T10:08:54;9.05;;;4.65;;
1753;SDS011;58380;48.312;9.246;2023-07-24T10:11:22;8.00;;;4.32;;
1753;SDS011;58380;48.312;9.246;2023-07-24T10:13:49;6.20;;;3.70;;
1753;SDS011;58380;48.312;9.246;2023-07-24T10:16:16;7.88;;;3.88;;
1753;SDS011;58380;48.312;9.246;2023-07-24T10:18:43;7.60;;;3.85;;
1753;SDS011;58380;48.312;9.246;2023-07-24T10:21:10;7.93;;;4.18;;
1753;SDS011;58380;48.312;9.246;2023-07-24T10:23:37;10.60;;;4.38;;
1753;SDS011;58380;48.312;9.246;2023-07-24T10:26:13;7.03;;;4.07;;
1753;SDS011;58380;48.312;9.246;2023-07-24T10:28:40;10.95;;;3.97;;
1753;SDS011;58380;48.312;9.246;2023-07-24T10:31:07;6.57;;;3.88;;
1753;SDS011;58380;48.312;9.246;2023-07-24T10:33:45;7.82;;;3.83;;
1753;SDS011;58380;48.312;9.246;2023-07-24T10:38:42;13.25;;;3.88;;
1753;SDS011;58380;48.312;9.246;2023-07-24T10:41:09;6.68;;;3.38;;
1753;SDS011;58380;48.312;9.246;2023-07-24T10:43:40;10.77;;;3.90;;
1753;SDS011;58380;48.312;9.246;2023-07-24T10:46:11;5.80;;;3.42;;
1753;SDS011;58380;48.312;9.246;2023-07-24T10:48:39;6.90;;;3.75;;
1753;SDS011;58380;48.312;9.246;2023-07-24T10:51:09;7.93;;;3.33;;
1753;SDS011;58380;48.312;9.246;2023-07-24T10:53:36;6.32;;;3.25;;
1753;SDS011;58380;48.312;9.246;2023-07-24T10:56:03;9.10;;;4.07;;
1753;SDS011;58380;48.312;9.246;2023-07-24T10:58:31;9.00;;;4.00;;
1753;SDS011;58380;48.312;9.246;2023-07-24T11:00:58;8.70;;;4.03;;
1753;SDS011;58380;48.312;9.246;2023-07-24T11:03:24;8.73;;;3.83;;
1753;SDS011;58380;48.312;9.246;2023-07-24T11:05:51;10.27;;;4.15;;
1753;SDS011;58380;48.312;9.246;2023-07-24T11:08:18;8.48;;;3.80;;
1753;SDS011;58380;48.312;9.246;2023-07-24T11:10:49;9.38;;;4.40;;
1753;SDS011;58380;48.312;9.246;2023-07-24T11:13:19;9.13;;;4.35;;
1753;SDS011;58380;48.312;9.246;2023-07-24T11:15:47;10.57;;;4.72;;
1753;SDS011;58380;48.312;9.246;2023-07-24T11:18:14;10.40;;;4.25;;
1753;SDS011;58380;48.312;9.246;2023-07-24T11:20:45;8.52;;;4.47;;
1753;SDS011;58380;48.312;9.246;2023-07-24T11:23:21;7.05;;;4.10;;
1753;SDS011;58380;48.312;9.246;2023-07-24T11:25:50;7.85;;;4.15;;
1753;SDS011;58380;48.312;9.246;2023-07-24T11:28:17;9.05;;;4.65;;
1753;SDS011;58380;48.312;9.246;2023-07-24T11:30:43;7.82;;;3.75;;
1753;SDS011;58380;48.312;9.246;2023-07-24T11:33:10;6.88;;;4.10;;
1753;SDS011;58380;48.312;9.246;2023-07-24T11:35:39;7.60;;;3.65;;
1753;SDS011;58380;48.312;9.246;2023-07-24T11:38:09;7.45;;;3.78;;
1753;SDS011;58380;48.312;9.246;2023-07-24T11:40:39;7.38;;;3.75;;
1753;SDS011;58380;48.312;9.246;2023-07-24T11:43:17;8.50;;;3.88;;
1753;SDS011;58380;48.312;9.246;2023-07-24T11:45:48;7.18;;;3.65;;
1753;SDS011;58380;48.312;9.246;2023-07-24T11:48:19;6.05;;;3.42;;
1753;SDS011;58380;48.312;9.246;2023-07-24T11:50:52;7.20;;;3.45;;
1753;SDS011;58380;48.312;9.246;2023-07-24T11:55:53;5.20;;;3.30;;
1753;SDS011;58380;48.312;9.246;2023-07-24T11:58:27;7.03;;;3.35;;
1753;SDS011;58380;48.312;9.246;2023-07-24T12:00:55;7.18;;;3.10;;
1753;SDS011;58380;48.312;9.246;2023-07-24T12:03:24;5.60;;;3.38;;
1753;SDS011;58380;48.312;9.246;2023-07-24T12:05:53;5.70;;;2.95;;
1753;SDS011;58380;48.312;9.246;2023-07-24T12:08:40;5.60;;;3.22;;
1753;SDS011;58380;48.312;9.246;2023-07-24T12:11:04;5.38;;;3.40;;
1753;SDS011;58380;48.312;9.246;2023-07-24T12:13:42;5.55;;;3.08;;
1753;SDS011;58380;48.312;9.246;2023-07-24T12:16:08;7.22;;;3.15;;
1753;SDS011;58380;48.312;9.246;2023-07-24T12:18:33;8.82;;;3.38;;
1753;SDS011;58380;48.312;9.246;2023-07-24T12:23:27;6.13;;;2.97;;
1753;SDS011;58380;48.312;9.246;2023-07-24T12:25:52;6.15;;;2.72;;
1753;SDS011;58380;48.312;9.246;2023-07-24T12:28:18;6.95;;;3.10;;
1753;SDS011;58380;48.312;9.246;2023-07-24T12:30:43;7.20;;;3.10;;
1753;SDS011;58380;48.312;9.246;2023-07-24T12:33:08;6.20;;;2.90;;
1753;SDS011;58380;48.312;9.246;2023-07-24T12:35:34;7.07;;;3.50;;
1753;SDS011;58380;48.312;9.246;2023-07-24T12:37:59;6.25;;;2.83;;
1753;SDS011;58380;48.312;9.246;2023-07-24T12:40:25;7.80;;;2.53;;
1753;SDS011;58380;48.312;9.246;2023-07-24T12:42:50;6.93;;;2.60;;
1753;SDS011;58380;48.312;9.246;2023-07-24T12:45:15;5.70;;;2.88;;
1753;SDS011;58380;48.312;9.246;2023-07-24T12:47:41;5.22;;;2.80;;
1753;SDS011;58380;48.312;9.246;2023-07-24T12:50:06;6.05;;;3.05;;
1753;SDS011;58380;48.312;9.246;2023-07-24T12:52:32;5.82;;;2.72;;
1753;SDS011;58380;48.312;9.246;2023-07-24T12:54:58;7.05;;;3.30;;
1753;SDS011;58380;48.312;9.246;2023-07-24T12:57:23;6.03;;;2.88;;
1753;SDS011;58380;48.312;9.246;2023-07-24T12:59:48;5.90;;;2.45;;
1753;SDS011;58380;48.312;9.246;2023-07-24T13:02:14;7.78;;;3.30;;
1753;SDS011;58380;48.312;9.246;2023-07-24T13:04:39;6.00;;;2.95;;
1753;SDS011;58380;48.312;9.246;2023-07-24T13:07:05;6.07;;;3.03;;
1753;SDS011;58380;48.312;9.246;2023-07-24T13:11:56;6.97;;;2.97;;
1753;SDS011;58380;48.312;9.246;2023-07-24T13:14:21;6.78;;;2.97;;
1753;SDS011;58380;48.312;9.246;2023-07-24T13:16:48;5.30;;;2.95;;
1753;SDS011;58380;48.312;9.246;2023-07-24T13:19:14;6.13;;;3.00;;
1753;SDS011;58380;48.312;9.246;2023-07-24T13:21:40;7.20;;;3.10;;
1753;SDS011;58380;48.312;9.246;2023-07-24T13:26:31;6.40;;;3.25;;
1753;SDS011;58380;48.312;9.246;2023-07-24T13:28:57;5.03;;;3.10;;
1753;SDS011;58380;48.312;9.246;2023-07-24T13:31:23;5.57;;;3.00;;
1753;SDS011;58380;48.312;9.246;2023-07-24T13:33:48;4.88;;;2.70;;
1753;SDS011;58380;48.312;9.246;2023-07-24T13:36:14;7.47;;;3.78;;
1753;SDS011;58380;48.312;9.246;2023-07-24T13:41:06;6.85;;;3.03;;
1753;SDS011;58380;48.312;9.246;2023-07-24T13:43:33;8.35;;;3.20;;
1753;SDS011;58380;48.312;9.246;2023-07-24T13:45:59;9.63;;;3.70;;
1753;SDS011;58380;48.312;9.246;2023-07-24T13:48:24;8.50;;;3.47;;
1753;SDS011;58380;48.312;9.246;2023-07-24T13:50:52;7.65;;;2.78;;
1753;SDS011;58380;48.312;9.246;2023-07-24T13:53:17;7.57;;;3.40;;
1753;SDS011;58380;48.312;9.246;2023-07-24T13:55:43;5.38;;;3.00;;
1753;SDS011;58380;48.312;9.246;2023-07-24T13:58:08;8.55;;;3.33;;
1753;SDS011;58380;48.312;9.246;2023-07-24T14:00:34;6.72;;;3.30;;
1753;SDS011;58380;48.312;9.246;2023-07-24T14:02:59;7.30;;;3.33;;
1753;SDS011;58380;48.312;9.246;2023-07-24T14:07:50;7.38;;;3.47;;
1753;SDS011;58380;48.312;9.246;2023-07-24T14:10:15;7.95;;;3.00;;
1753;SDS011;58380;48.312;9.246;2023-07-24T14:12:41;6.32;;;2.90;;
1753;SDS011;58380;48.312;9.246;2023-07-24T14:15:06;5.35;;;2.95;;
1753;SDS011;58380;48.312;9.246;2023-07-24T14:19:57;5.93;;;3.10;;
1753;SDS011;58380;48.312;9.246;2023-07-24T14:22:23;5.82;;;2.95;;
1753;SDS011;58380;48.312;9.246;2023-07-24T14:24:48;6.38;;;3.92;;
1753;SDS011;58380;48.312;9.246;2023-07-24T14:27:14;6.07;;;3.17;;
1753;SDS011;58380;48.312;9.246;2023-07-24T14:29:39;6.25;;;3.28;;
1753;SDS011;58380;48.312;9.246;2023-07-24T14:34:31;5.95;;;2.95;;
1753;SDS011;58380;48.312;9.246;2023-07-24T14:36:57;9.73;;;3.17;;
1753;SDS011;58380;48.312;9.246;2023-07-24T14:39:22;6.30;;;3.38;;
1753;SDS011;58380;48.312;9.246;2023-07-24T14:41:47;8.07;;;3.45;;
1753;SDS011;58380;48.312;9.246;2023-07-24T14:44:13;8.27;;;3.65;;
1753;SDS011;58380;48.312;9.246;2023-07-24T14:46:38;7.07;;;4.05;;
1753;SDS011;58380;48.312;9.246;2023-07-24T14:49:04;7.85;;;4.43;;
1753;SDS011;58380;48.312;9.246;2023-07-24T14:51:29;8.00;;;4.68;;
1753;SDS011;58380;48.312;9.246;2023-07-24T14:53:55;7.95;;;4.47;;
1753;SDS011;58380;48.312;9.246;2023-07-24T14:56:20;8.75;;;3.92;;
1753;SDS011;58380;48.312;9.246;2023-07-24T14:58:46;7.78;;;3.90;;
1753;SDS011;58380;48.312;9.246;2023-07-24T15:01:12;7.30;;;3.63;;
1753;SDS011;58380;48.312;9.246;2023-07-24T15:03:38;6.88;;;3.47;;
1753;SDS011;58380;48.312;9.246;2023-07-24T15:06:03;6.28;;;3.65;;
1753;SDS011;58380;48.312;9.246;2023-07-24T15:08:31;6.65;;;3.55;;
1753;SDS011;58380;48.312;9.246;2023-07-24T15:11:00;11.00;;;3.83;;
1753;SDS011;58380;48.312;9.246;2023-07-24T15:13:26;8.80;;;3.63;;
1753;SDS011;58380;48.312;9.246;2023-07-24T15:15:51;7.45;;;3.97;;
1753;SDS011;58380;48.312;9.246;2023-07-24T15:18:17;7.25;;;3.42;;
1753;SDS011;58380;48.312;9.246;2023-07-24T15:20:42;5.50;;;3.10;;
1753;SDS011;58380;48.312;9.246;2023-07-24T15:23:08;6.45;;;3.05;;
1753;SDS011;58380;48.312;9.246;2023-07-24T15:25:34;7.32;;;3.08;;
1753;SDS011;58380;48.312;9.246;2023-07-24T15:28:00;5.10;;;2.80;;
1753;SDS011;58380;48.312;9.246;2023-07-24T15:30:25;9.90;;;3.38;;
1753;SDS011;58380;48.312;9.246;2023-07-24T15:32:50;6.10;;;3.92;;
1753;SDS011;58380;48.312;9.246;2023-07-24T15:37:41;6.55;;;3.20;;
1753;SDS011;58380;48.312;9.246;2023-07-24T15:40:08;7.30;;;3.80;;
1753;SDS011;58380;48.312;9.246;2023-07-24T15:42:34;4.88;;;2.70;;
1753;SDS011;58380;48.312;9.246;2023-07-24T15:45:00;6.53;;;3.22;;
1753;SDS011;58380;48.312;9.246;2023-07-24T15:49:51;8.82;;;4.05;;
1753;SDS011;58380;48.312;9.246;2023-07-24T15:54:42;7.10;;;3.78;;
1753;SDS011;58380;48.312;9.246;2023-07-24T15:57:07;7.22;;;3.90;;
1753;SDS011;58380;48.312;9.246;2023-07-24T15:59:33;11.23;;;6.03;;
1753;SDS011;58380;48.312;9.246;2023-07-24T16:04:24;8.38;;;4.30;;
1753;SDS011;58380;48.312;9.246;2023-07-24T16:09:14;6.32;;;3.28;;
1753;SDS011;58380;48.312;9.246;2023-07-24T16:14:05;8.27;;;3.25;;
1753;SDS011;58380;48.312;9.246;2023-07-24T16:16:31;8.43;;;4.15;;
1753;SDS011;58380;48.312;9.246;2023-07-24T16:21:42;5.07;;;2.83;;
1753;SDS011;58380;48.312;9.246;2023-07-24T16:24:09;5.63;;;2.85;;
1753;SDS011;58380;48.312;9.246;2023-07-24T16:26:35;8.43;;;3.13;;
1753;SDS011;58380;48.312;9.246;2023-07-24T16:29:01;8.13;;;4.38;;
1753;SDS011;58380;48.312;9.246;2023-07-24T16:31:28;7.70;;;4.05;;
1753;SDS011;58380;48.312;9.246;2023-07-24T16:33:54;6.20;;;3.25;;
1753;SDS011;58380;48.312;9.246;2023-07-24T16:36:19;8.05;;;3.70;;
1753;SDS011;58380;48.312;9.246;2023-07-24T16:41:10;9.52;;;3.08;;
1753;SDS011;58380;48.312;9.246;2023-07-24T16:43:36;9.07;;;2.58;;
1753;SDS011;58380;48.312;9.246;2023-07-24T16:48:26;7.40;;;3.90;;
1753;SDS011;58380;48.312;9.246;2023-07-24T16:53:17;8.07;;;2.88;;
1753;SDS011;58380;48.312;9.246;2023-07-24T16:58:08;4.82;;;2.45;;
1753;SDS011;58380;48.312;9.246;2023-07-24T17:02:59;6.28;;;2.70;;
1753;SDS011;58380;48.312;9.246;2023-07-24T17:07:49;5.22;;;2.50;;
1753;SDS011;58380;48.312;9.246;2023-07-24T17:10:15;3.85;;;2.53;;
1753;SDS011;58380;48.312;9.246;2023-07-24T17:12:41;7.28;;;2.38;;
1753;SDS011;58380;48.312;9.246;2023-07-24T17:15:07;4.35;;;2.65;;
1753;SDS011;58380;48.312;9.246;2023-07-24T17:19:58;8.38;;;4.60;;
1753;SDS011;58380;48.312;9.246;2023-07-24T17:22:24;7.95;;;3.33;;
1753;SDS011;58380;48.312;9.246;2023-07-24T17:24:50;6.63;;;4.07;;
1753;SDS011;58380;48.312;9.246;2023-07-24T17:29:41;5.60;;;3.08;;
1753;SDS011;58380;48.312;9.246;2023-07-24T17:34:32;6.32;;;3.10;;
1753;SDS011;58380;48.312;9.246;2023-07-24T17:39:23;6.47;;;3.00;;
1753;SDS011;58380;48.312;9.246;2023-07-24T17:41:49;4.65;;;2.92;;
1753;SDS011;58380;48.312;9.246;2023-07-24T17:46:39;7.40;;;2.60;;
1753;SDS011;58380;48.312;9.246;2023-07-24T17:49:05;4.35;;;2.38;;
1753;SDS011;58380;48.312;9.246;2023-07-24T17:51:30;4.53;;;2.70;;
1753;SDS011;58380;48.312;9.246;2023-07-24T17:53:56;5.22;;;2.55;;
1753;SDS011;58380;48.312;9.246;2023-07-24T17:56:24;5.63;;;2.50;;
1753;SDS011;58380;48.312;9.246;2023-07-24T17:58:49;6.80;;;3.00;;
1753;SDS011;58380;48.312;9.246;2023-07-24T18:01:15;5.90;;;2.65;;
1753;SDS011;58380;48.312;9.246;2023-07-24T18:03:40;6.57;;;2.53;;
1753;SDS011;58380;48.312;9.246;2023-07-24T18:06:05;4.78;;;2.78;;
1753;SDS011;58380;48.312;9.246;2023-07-24T18:08:31;5.72;;;2.58;;
1753;SDS011;58380;48.312;9.246;2023-07-24T18:10:56;5.38;;;2.78;;
1753;SDS011;58380;48.312;9.246;2023-07-24T18:13:22;6.00;;;3.05;;
1753;SDS011;58380;48.312;9.246;2023-07-24T18:15:48;5.22;;;2.97;;
1753;SDS011;58380;48.312;9.246;2023-07-24T18:18:13;4.88;;;2.92;;
1753;SDS011;58380;48.312;9.246;2023-07-24T18:20:39;4.40;;;2.35;;
1753;SDS011;58380;48.312;9.246;2023-07-24T18:23:04;6.05;;;2.58;;
1753;SDS011;58380;48.312;9.246;2023-07-24T18:25:30;6.70;;;2.33;;
1753;SDS011;58380;48.312;9.246;2023-07-24T18:27:55;3.35;;;2.25;;
1753;SDS011;58380;48.312;9.246;2023-07-24T18:30:20;4.30;;;2.30;;
1753;SDS011;58380;48.312;9.246;2023-07-24T18:32:53;3.00;;;1.83;;
1753;SDS011;58380;48.312;9.246;2023-07-24T18:35:19;3.10;;;1.70;;
1753;SDS011;58380;48.312;9.246;2023-07-24T18:37:45;4.40;;;2.00;;
1753;SDS011;58380;48.312;9.246;2023-07-24T18:40:10;3.15;;;2.05;;
1753;SDS011;58380;48.312;9.246;2023-07-24T18:42:37;4.53;;;2.30;;
1753;SDS011;58380;48.312;9.246;2023-07-24T18:45:03;3.58;;;1.85;;
1753;SDS011;58380;48.312;9.246;2023-07-24T18:47:29;5.55;;;2.08;;
1753;SDS011;58380;48.312;9.246;2023-07-24T18:49:55;5.80;;;2.00;;
1753;SDS011;58380;48.312;9.246;2023-07-24T18:52:20;5.63;;;1.88;;
1753;SDS011;58380;48.312;9.246;2023-07-24T18:54:46;3.80;;;1.92;;
1753;SDS011;58380;48.312;9.246;2023-07-24T18:57:12;2.92;;;1.73;;
1753;SDS011;58380;48.312;9.246;2023-07-24T18:59:38;3.20;;;1.80;;
1753;SDS011;58380;48.312;9.246;2023-07-24T19:02:04;3.42;;;1.75;;
1753;SDS011;58380;48.312;9.246;2023-07-24T19:04:29;6.03;;;1.73;;
1753;SDS011;58380;48.312;9.246;2023-07-24T19:06:55;3.15;;;1.80;;
1753;SDS011;58380;48.312;9.246;2023-07-24T19:09:20;3.47;;;1.90;;
1753;SDS011;58380;48.312;9.246;2023-07-24T19:11:46;3.35;;;2.03;;
1753;SDS011;58380;48.312;9.246;2023-07-24T19:14:11;2.97;;;1.75;;
1753;SDS011;58380;48.312;9.246;2023-07-24T19:16:36;3.30;;;2.00;;
1753;SDS011;58380;48.312;9.246;2023-07-24T19:19:02;4.03;;;1.77;;
1753;SDS011;58380;48.312;9.246;2023-07-24T19:21:30;3.92;;;1.88;;
1753;SDS011;58380;48.312;9.246;2023-07-24T19:23:56;3.42;;;1.65;;
1753;SDS011;58380;48.312;9.246;2023-07-24T19:26:21;3.33;;;1.98;;
1753;SDS011;58380;48.312;9.246;2023-07-24T19:28:46;5.20;;;1.95;;
1753;SDS011;58380;48.312;9.246;2023-07-24T19:31:12;4.70;;;2.05;;
1753;SDS011;58380;48.312;9.246;2023-07-24T19:33:37;2.17;;;1.52;;
1753;SDS011;58380;48.312;9.246;2023-07-24T19:36:03;3.10;;;1.67;;
1753;SDS011;58380;48.312;9.246;2023-07-24T19:38:28;3.72;;;2.20;;
1753;SDS011;58380;48.312;9.246;2023-07-24T19:40:55;6.18;;;1.70;;
1753;SDS011;58380;48.312;9.246;2023-07-24T19:43:24;3.35;;;1.63;;
1753;SDS011;58380;48.312;9.246;2023-07-24T19:48:17;3.40;;;1.60;;
1753;SDS011;58380;48.312;9.246;2023-07-24T19:50:50;4.07;;;1.92;;
1753;SDS011;58380;48.312;9.246;2023-07-24T19:53:21;4.75;;;1.80;;
1753;SDS011;58380;48.312;9.246;2023-07-24T19:55:48;2.92;;;1.33;;
1753;SDS011;58380;48.312;9.246;2023-07-24T19:58:14;4.38;;;2.20;;
1753;SDS011;58380;48.312;9.246;2023-07-24T20:00:41;3.85;;;2.00;;
1753;SDS011;58380;48.312;9.246;2023-07-24T20:03:08;3.72;;;1.50;;
1753;SDS011;58380;48.312;9.246;2023-07-24T20:05:34;3.08;;;1.65;;
1753;SDS011;58380;48.312;9.246;2023-07-24T20:08:00;2.72;;;1.50;;
1753;SDS011;58380;48.312;9.246;2023-07-24T20:10:25;2.38;;;1.52;;
1753;SDS011;58380;48.312;9.246;2023-07-24T20:12:51;5.05;;;2.13;;
1753;SDS011;58380;48.312;9.246;2023-07-24T20:15:17;2.83;;;1.50;;
1753;SDS011;58380;48.312;9.246;2023-07-24T20:17:42;4.75;;;1.73;;
1753;SDS011;58380;48.312;9.246;2023-07-24T20:20:08;5.90;;;2.38;;
1753;SDS011;58380;48.312;9.246;2023-07-24T20:22:34;3.53;;;1.90;;
1753;SDS011;58380;48.312;9.246;2023-07-24T20:24:59;5.78;;;2.35;;
1753;SDS011;58380;48.312;9.246;2023-07-24T20:27:24;6.25;;;2.70;;
1753;SDS011;58380;48.312;9.246;2023-07-24T20:29:50;8.55;;;2.17;;
1753;SDS011;58380;48.312;9.246;2023-07-24T20:32:16;3.40;;;2.05;;
1753;SDS011;58380;48.312;9.246;2023-07-24T20:34:41;6.30;;;2.45;;
1753;SDS011;58380;48.312;9.246;2023-07-24T20:37:07;3.55;;;1.73;;
1753;SDS011;58380;48.312;9.246;2023-07-24T20:39:32;4.38;;;2.13;;
1753;SDS011;58380;48.312;9.246;2023-07-24T20:41:58;5.03;;;2.00;;
1753;SDS011;58380;48.312;9.246;2023-07-24T20:44:23;3.58;;;2.17;;
1753;SDS011;58380;48.312;9.246;2023-07-24T20:46:49;3.85;;;2.50;;
1753;SDS011;58380;48.312;9.246;2023-07-24T20:49:14;7.75;;;2.17;;
1753;SDS011;58380;48.312;9.246;2023-07-24T20:51:40;3.80;;;2.30;;
1753;SDS011;58380;48.312;9.246;2023-07-24T20:54:05;3.95;;;2.40;;
1753;SDS011;58380;48.312;9.246;2023-07-24T20:56:31;9.10;;;2.63;;
1753;SDS011;58380;48.312;9.246;2023-07-24T20:58:56;6.70;;;2.47;;
1753;SDS011;58380;48.312;9.246;2023-07-24T21:01:22;6.55;;;2.30;;
1753;SDS011;58380;48.312;9.246;2023-07-24T21:03:50;6.05;;;2.50;;
1753;SDS011;58380;48.312;9.246;2023-07-24T21:06:17;4.95;;;2.28;;
1753;SDS011;58380;48.312;9.246;2023-07-24T21:08:42;4.20;;;2.07;;
1753;SDS011;58380;48.312;9.246;2023-07-24T21:11:07;4.00;;;2.38;;
1753;SDS011;58380;48.312;9.246;2023-07-24T21:13:33;4.30;;;2.10;;
1753;SDS011;58380;48.312;9.246;2023-07-24T21:15:58;9.98;;;2.33;;
1753;SDS011;58380;48.312;9.246;2023-07-24T21:18:25;4.15;;;2.30;;
1753;SDS011;58380;48.312;9.246;2023-07-24T21:20:51;5.32;;;2.08;;
1753;SDS011;58380;48.312;9.246;2023-07-24T21:23:16;4.32;;;2.28;;
1753;SDS011;58380;48.312;9.246;2023-07-24T21:25:49;3.58;;;1.83;;
1753;SDS011;58380;48.312;9.246;2023-07-24T21:28:20;5.97;;;2.22;;
1753;SDS011;58380;48.312;9.246;2023-07-24T21:30:47;6.63;;;2.30;;
